Time;durP1;ratioP1;P1;durP2;ratioP2;P2;SDS_P1;SDS_P2;PMS_P1;PMS_P2;Temp;Humidity;BMP_temperature;BMP_pressure;BME280_temperature;BME280_humidity;BME280_pressure;Samples;Min_cycle;Max_cycle;Signal;HPM_P1;HPM_P2
2021/12/26 00:00:45;;;;;;;18.35;11.20;;;1.10;99.90;;;;;;5057237;28;20032;-78
2021/12/26 00:03:10;;;;;;;;;;;1.20;99.90;;;;;;5055943;28;20130;-78
2021/12/26 00:05:36;;;;;;;16.20;10.57;;;1.20;99.90;;;;;;5055526;28;20416;-78
2021/12/26 00:08:02;;;;;;;21.15;10.75;;;1.20;99.90;;;;;;5055425;28;20064;-78
2021/12/26 00:10:28;;;;;;;18.48;10.65;;;1.20;99.90;;;;;;5056647;28;20021;-78
2021/12/26 00:12:56;;;;;;;17.83;10.80;;;1.20;99.90;;;;;;5055330;28;20025;-78
2021/12/26 00:15:22;;;;;;;17.00;10.13;;;1.10;99.90;;;;;;5056553;28;20033;-78
2021/12/26 00:17:48;;;;;;;15.90;10.60;;;1.10;99.90;;;;;;5055074;28;20057;-78
2021/12/26 00:20:15;;;;;;;18.00;10.20;;;1.10;99.90;;;;;;5056547;28;20440;-78
2021/12/26 00:22:42;;;;;;;14.25;9.25;;;1.10;99.90;;;;;;5055234;28;20122;-78
2021/12/26 00:25:09;;;;;;;14.38;9.23;;;1.10;99.90;;;;;;5056700;28;20021;-78
2021/12/26 00:27:35;;;;;;;13.38;8.20;;;1.00;99.90;;;;;;5056249;28;20025;-78
2021/12/26 00:30:03;;;;;;;12.52;8.05;;;1.10;99.90;;;;;;5056348;28;20025;-78
2021/12/26 00:32:29;;;;;;;14.07;7.97;;;1.00;99.90;;;;;;5055018;28;20029;-78
2021/12/26 00:34:54;;;;;;;14.02;8.15;;;1.00;99.90;;;;;;5056204;28;20477;-78
2021/12/26 00:37:20;;;;;;;12.75;7.75;;;1.00;99.90;;;;;;5054930;28;20033;-78
2021/12/26 00:39:46;;;;;;;12.85;8.30;;;1.00;99.90;;;;;;5056176;28;20048;-78
2021/12/26 00:42:12;;;;;;;14.02;8.63;;;1.10;99.90;;;;;;5056180;28;20377;-78
2021/12/26 00:44:40;;;;;;;11.68;7.53;;;1.00;99.90;;;;;;5056411;28;20028;-79
2021/12/26 00:47:09;;;;;;;16.13;9.00;;;1.10;99.90;;;;;;5056148;28;20523;-79
2021/12/26 00:49:35;;;;;;;15.30;9.30;;;1.10;99.90;;;;;;5055058;28;20029;-78
2021/12/26 00:52:01;;;;;;;12.57;7.72;;;1.10;99.90;;;;;;5055083;28;20059;-78
2021/12/26 00:54:27;;;;;;;13.07;7.38;;;1.00;99.90;;;;;;5055910;28;20071;-78
2021/12/26 00:56:53;;;;;;;10.95;6.97;;;1.00;99.90;;;;;;5056147;28;20024;-79
2021/12/26 00:59:18;;;;;;;10.73;6.40;;;1.00;99.90;;;;;;5054604;28;20036;-78
2021/12/26 01:01:44;;;;;;;11.20;7.03;;;1.00;99.90;;;;;;5054148;28;20433;-79
2021/12/26 01:04:12;;;;;;;11.77;6.90;;;1.00;99.90;;;;;;5053597;28;20029;-78
2021/12/26 01:06:38;;;;;;;9.73;6.18;;;1.00;99.90;;;;;;5040978;28;20096;-78
2021/12/26 01:09:08;;;;;;;12.68;7.13;;;1.00;99.90;;;;;;5051142;28;20035;-78
2021/12/26 01:11:37;;;;;;;11.07;6.80;;;1.00;99.90;;;;;;5054706;28;20032;-79
2021/12/26 01:14:06;;;;;;;10.80;6.72;;;1.00;99.90;;;;;;5055909;28;20059;-79
2021/12/26 01:16:33;;;;;;;11.18;6.72;;;1.00;99.90;;;;;;5055744;28;20017;-79
2021/12/26 01:19:06;;;;;;;11.07;6.40;;;1.00;99.90;;;;;;5054476;28;20116;-79
2021/12/26 01:21:32;;;;;;;12.98;8.35;;;1.00;99.90;;;;;;5055997;28;20366;-78
2021/12/26 01:24:03;;;;;;;12.15;7.63;;;1.00;99.90;;;;;;5055602;28;20025;-78
2021/12/26 01:26:29;;;;;;;13.73;8.07;;;1.00;99.90;;;;;;5055852;28;20021;-79
2021/12/26 01:28:55;;;;;;;12.02;7.45;;;1.00;99.90;;;;;;5055269;28;20037;-79
2021/12/26 01:31:22;;;;;;;12.85;8.32;;;1.00;99.90;;;;;;5055340;28;20075;-79
2021/12/26 01:33:54;;;;;;;14.43;8.35;;;1.00;99.90;;;;;;5054134;28;20035;-79
2021/12/26 01:36:21;;;;;;;15.23;9.18;;;1.00;99.90;;;;;;5055571;28;20389;-79
2021/12/26 01:38:47;;;;;;;17.67;9.98;;;0.90;99.90;;;;;;5055336;28;20033;-79
2021/12/26 01:41:16;;;;;;;15.88;9.10;;;0.90;99.90;;;;;;5055334;28;20075;-78
2021/12/26 01:43:45;;;;;;;15.48;8.50;;;1.00;99.90;;;;;;5053819;28;20469;-79
2021/12/26 01:46:12;;;;;;;18.52;9.30;;;0.90;99.90;;;;;;5055481;28;20036;-78
2021/12/26 01:48:38;;;;;;;16.63;9.25;;;1.00;99.90;;;;;;5055032;28;20047;-79
2021/12/26 01:51:04;;;;;;;16.15;8.98;;;1.00;99.90;;;;;;5055302;28;20024;-78
2021/12/26 01:53:36;;;;;;;16.60;9.23;;;1.00;99.90;;;;;;5054946;28;20076;-78
2021/12/26 01:56:05;;;;;;;18.50;9.27;;;1.00;99.90;;;;;;5055328;28;20037;-78
2021/12/26 01:58:31;;;;;;;14.95;8.32;;;1.00;99.90;;;;;;5055131;28;20396;-79
2021/12/26 02:01:10;;;;;;;16.77;9.50;;;1.00;99.90;;;;;;5053678;28;20112;-79
2021/12/26 02:03:37;;;;;;;17.83;9.45;;;1.00;99.90;;;;;;5055463;28;20100;-79
2021/12/26 02:06:04;;;;;;;16.02;8.93;;;1.00;99.90;;;;;;5053993;28;20025;-79
2021/12/26 02:08:30;;;;;;;17.77;9.10;;;1.00;99.90;;;;;;5054758;28;20380;-79
2021/12/26 02:11:00;;;;;;;16.77;9.63;;;1.00;99.90;;;;;;5054669;28;20025;-79
2021/12/26 02:13:26;;;;;;;15.82;9.20;;;1.00;99.90;;;;;;5054671;28;20032;-79
2021/12/26 02:15:53;;;;;;;15.15;8.68;;;1.00;99.90;;;;;;5054773;28;20039;-79
2021/12/26 02:18:19;;;;;;;14.13;8.32;;;1.00;99.90;;;;;;5054423;28;20032;-79
2021/12/26 02:23:51;;;;;;;15.90;8.68;;;1.00;99.90;;;;;;5054790;28;20070;-79
2021/12/26 02:29:01;;;;;;;14.52;8.45;;;1.00;99.90;;;;;;5054488;28;20044;-79
2021/12/26 02:31:27;;;;;;;17.52;9.25;;;1.00;99.90;;;;;;5054363;28;20025;-79
2021/12/26 02:33:53;;;;;;;15.73;9.02;;;1.00;99.90;;;;;;5052899;28;20060;-78
2021/12/26 02:36:19;;;;;;;16.33;9.35;;;1.10;99.90;;;;;;5052954;28;20036;-78
2021/12/26 02:38:44;;;;;;;14.40;8.93;;;1.00;99.90;;;;;;5052794;28;20075;-79
2021/12/26 02:41:10;;;;;;;16.27;9.25;;;1.00;99.90;;;;;;5054197;28;20017;-78
2021/12/26 02:43:36;;;;;;;15.57;9.23;;;1.00;99.90;;;;;;5054122;28;20021;-78
2021/12/26 02:46:06;;;;;;;16.38;9.38;;;1.00;99.90;;;;;;5052569;28;20017;-78
2021/12/26 02:48:36;;;;;;;18.10;9.55;;;1.00;99.90;;;;;;5052434;28;20025;-78
2021/12/26 02:51:02;;;;;;;15.25;8.77;;;1.00;99.90;;;;;;5053702;28;20021;-78
2021/12/26 02:53:28;;;;;;;14.77;8.95;;;1.00;99.90;;;;;;5053706;28;20021;-78
2021/12/26 02:55:55;;;;;;;16.15;8.85;;;1.00;99.90;;;;;;5053652;28;20496;-78
2021/12/26 02:58:22;;;;;;;15.30;9.43;;;1.00;99.90;;;;;;5053490;28;20103;-78
2021/12/26 03:01:10;;;;;;;13.65;8.52;;;1.00;99.90;;;;;;5053542;28;20025;-78
2021/12/26 03:03:36;;;;;;;13.02;8.23;;;1.00;99.90;;;;;;5052401;28;20028;-78
2021/12/26 03:06:12;;;;;;;15.40;8.10;;;1.00;99.90;;;;;;5053457;28;20028;-78
2021/12/26 03:08:38;;;;;;;13.43;7.47;;;1.00;99.90;;;;;;5053752;28;20029;-79
2021/12/26 03:11:04;;;;;;;13.52;7.97;;;1.00;99.90;;;;;;5053448;28;20469;-79
2021/12/26 03:13:30;;;;;;;13.45;7.80;;;1.00;99.90;;;;;;5053423;28;20021;-78
2021/12/26 03:15:56;;;;;;;14.60;8.45;;;1.00;99.90;;;;;;5052107;28;20436;-78
2021/12/26 03:18:22;;;;;;;11.93;7.45;;;1.00;99.90;;;;;;5051930;28;20473;-79
2021/12/26 03:20:50;;;;;;;12.80;7.80;;;1.00;99.90;;;;;;5053272;28;20481;-79
2021/12/26 03:23:19;;;;;;;14.45;8.55;;;1.00;99.90;;;;;;5052058;28;20119;-79
2021/12/26 03:25:45;;;;;;;15.65;8.55;;;0.90;99.90;;;;;;5053359;28;20036;-79
2021/12/26 03:28:12;;;;;;;14.75;8.93;;;0.90;99.90;;;;;;5053319;28;20028;-79
2021/12/26 03:30:39;;;;;;;14.48;8.95;;;0.90;99.90;;;;;;5051968;28;20029;-79
2021/12/26 03:33:08;;;;;;;15.35;9.10;;;0.90;99.90;;;;;;5051943;28;20036;-79
2021/12/26 03:35:35;;;;;;;13.68;8.30;;;0.90;99.90;;;;;;5051968;28;20040;-79
2021/12/26 03:38:03;;;;;;;14.38;7.63;;;0.90;99.90;;;;;;5053155;28;20025;-79
2021/12/26 03:40:29;;;;;;;11.88;7.25;;;0.90;99.90;;;;;;5051865;28;20029;-79
2021/12/26 03:42:54;;;;;;;13.05;7.07;;;0.90;99.90;;;;;;5053365;28;20021;-79
2021/12/26 03:45:20;;;;;;;11.18;6.55;;;0.90;99.90;;;;;;5053373;28;20021;-79
2021/12/26 03:47:49;;;;;;;11.30;6.15;;;0.90;99.90;;;;;;5052393;28;20053;-79
2021/12/26 03:50:17;;;;;;;11.13;6.28;;;0.90;99.90;;;;;;5053776;28;20070;-79
2021/12/26 03:52:43;;;;;;;10.10;6.18;;;0.90;99.90;;;;;;5053211;28;20021;-79
2021/12/26 03:55:09;;;;;;;10.73;7.07;;;0.90;99.90;;;;;;5052994;28;20021;-79
2021/12/26 03:57:35;;;;;;;12.82;7.32;;;0.90;99.90;;;;;;5053222;28;20104;-79
2021/12/26 04:00:01;;;;;;;11.82;6.75;;;0.90;99.90;;;;;;5053214;28;20112;-79
2021/12/26 04:02:27;;;;;;;12.18;7.47;;;0.90;99.90;;;;;;5053071;28;20025;-79
2021/12/26 04:04:52;;;;;;;12.98;7.93;;;0.90;99.90;;;;;;5052840;28;20469;-79
2021/12/26 04:07:18;;;;;;;12.32;7.25;;;0.90;99.90;;;;;;5052935;28;20037;-79
2021/12/26 04:09:44;;;;;;;12.90;8.20;;;0.90;99.90;;;;;;5052869;28;20025;-79
2021/12/26 04:12:10;;;;;;;12.50;7.55;;;0.90;99.90;;;;;;5051642;28;20098;-79
2021/12/26 04:14:36;;;;;;;11.63;7.47;;;0.90;99.90;;;;;;5052833;28;20082;-79
2021/12/26 04:17:02;;;;;;;12.82;7.40;;;0.90;99.90;;;;;;5052753;28;20029;-79
2021/12/26 04:19:28;;;;;;;12.27;7.70;;;1.00;99.90;;;;;;5053240;28;20079;-79
2021/12/26 04:21:54;;;;;;;12.73;6.82;;;0.90;99.90;;;;;;5052809;28;20029;-79
2021/12/26 04:24:19;;;;;;;11.18;7.35;;;0.90;99.90;;;;;;5053392;28;20096;-79
2021/12/26 04:26:45;;;;;;;11.32;7.28;;;0.90;99.90;;;;;;5052656;28;20139;-79
2021/12/26 04:29:11;;;;;;;11.50;7.05;;;0.90;99.90;;;;;;5054039;28;20128;-79
2021/12/26 04:31:37;;;;;;;12.18;7.47;;;0.90;99.90;;;;;;5056311;28;20025;-79
2021/12/26 04:34:03;;;;;;;11.63;6.82;;;0.90;99.90;;;;;;5056237;28;20469;-79
2021/12/26 04:36:29;;;;;;;11.90;6.60;;;0.90;99.90;;;;;;5056614;28;20028;-79
2021/12/26 04:38:55;;;;;;;11.98;6.68;;;0.80;99.90;;;;;;5056077;28;20070;-79
2021/12/26 04:41:21;;;;;;;11.45;6.82;;;0.90;99.90;;;;;;5056468;28;20104;-79
2021/12/26 04:43:47;;;;;;;9.15;6.70;;;0.90;99.90;;;;;;5054872;28;20159;-79
2021/12/26 04:46:13;;;;;;;13.45;7.47;;;0.90;99.90;;;;;;5055996;28;20032;-79
2021/12/26 04:48:41;;;;;;;13.43;7.88;;;0.80;99.90;;;;;;5054736;28;20102;-79
2021/12/26 04:51:09;;;;;;;13.43;7.78;;;0.80;99.90;;;;;;5054914;28;20051;-79
2021/12/26 04:53:36;;;;;;;14.23;8.65;;;0.80;99.90;;;;;;5054683;28;20025;-79
2021/12/26 04:56:03;;;;;;;13.35;8.02;;;0.80;99.90;;;;;;5055984;28;20480;-79
2021/12/26 04:58:29;;;;;;;15.57;8.68;;;0.70;99.90;;;;;;5055611;28;20029;-79
2021/12/26 05:00:55;;;;;;;14.02;8.50;;;0.80;99.90;;;;;;5056095;28;20487;-79
2021/12/26 05:03:21;;;;;;;13.10;7.85;;;0.80;99.90;;;;;;5055759;28;20033;-79
2021/12/26 05:05:47;;;;;;;11.77;7.78;;;0.80;99.90;;;;;;5055706;28;20029;-79
2021/12/26 05:08:13;;;;;;;12.43;7.82;;;0.80;99.90;;;;;;5054227;28;20025;-79
2021/12/26 05:10:40;;;;;;;15.40;8.60;;;0.80;99.90;;;;;;5054305;28;20029;-79
2021/12/26 05:13:06;;;;;;;14.60;8.07;;;0.70;99.90;;;;;;5055554;28;20390;-79
2021/12/26 05:15:32;;;;;;;14.35;8.25;;;0.70;99.90;;;;;;5055837;28;20074;-79
2021/12/26 05:17:58;;;;;;;13.57;8.45;;;0.80;99.90;;;;;;5055603;28;20025;-79
2021/12/26 05:20:26;;;;;;;13.85;7.85;;;0.80;99.90;;;;;;5055787;28;20020;-78
2021/12/26 05:22:54;;;;;;;15.38;8.60;;;0.80;99.90;;;;;;5056498;28;20025;-78
2021/12/26 05:25:20;;;;;;;14.50;7.90;;;0.90;99.90;;;;;;5056278;28;20100;-79
2021/12/26 05:27:47;;;;;;;10.73;6.53;;;0.90;99.90;;;;;;5056388;28;20017;-79
2021/12/26 05:30:17;;;;;;;11.90;7.10;;;0.90;99.90;;;;;;5056635;28;20033;-79
2021/12/26 05:32:44;;;;;;;11.35;6.80;;;0.90;99.90;;;;;;5056373;28;20029;-79
2021/12/26 05:35:11;;;;;;;15.02;8.48;;;0.80;99.90;;;;;;5054745;28;20040;-79
2021/12/26 05:37:39;;;;;;;15.05;8.05;;;0.80;99.90;;;;;;5054786;28;20439;-79
2021/12/26 05:40:07;;;;;;;15.95;8.38;;;0.80;99.90;;;;;;5053728;28;20389;-79
2021/12/26 05:42:33;;;;;;;13.23;7.70;;;0.80;99.90;;;;;;5055480;28;20021;-79
2021/12/26 05:44:59;;;;;;;13.18;7.95;;;0.80;99.90;;;;;;5057893;28;20021;-81
2021/12/26 05:47:26;;;;;;;16.65;8.25;;;0.80;99.90;;;;;;5057422;28;20032;-81
2021/12/26 05:49:52;;;;;;;13.95;7.95;;;0.80;99.90;;;;;;5057460;28;20104;-81
2021/12/26 05:52:19;;;;;;;13.88;8.50;;;0.80;99.90;;;;;;5057054;28;20029;-81
2021/12/26 05:54:46;;;;;;;13.35;8.25;;;0.80;99.90;;;;;;5056167;28;20135;-81
2021/12/26 05:57:12;;;;;;;12.88;8.63;;;0.80;99.90;;;;;;5056721;28;20083;-81
2021/12/26 05:59:37;;;;;;;16.13;9.95;;;0.90;99.90;;;;;;5056345;28;20472;-81
2021/12/26 06:02:04;;;;;;;17.25;10.02;;;0.90;99.90;;;;;;5057184;28;20104;-81
2021/12/26 06:04:30;;;;;;;19.73;10.90;;;0.90;99.90;;;;;;5055502;28;20021;-81
2021/12/26 06:06:56;;;;;;;16.88;10.20;;;0.90;99.90;;;;;;5056038;28;20091;-82
2021/12/26 06:09:22;;;;;;;15.02;9.63;;;0.90;99.90;;;;;;5057143;28;20047;-82
2021/12/26 06:11:47;;;;;;;18.98;10.45;;;0.80;99.90;;;;;;5057188;28;20029;-82
2021/12/26 06:14:14;;;;;;;21.83;11.68;;;0.80;99.90;;;;;;5057171;28;20029;-82
2021/12/26 06:16:39;;;;;;;19.15;9.45;;;0.90;99.90;;;;;;5056720;28;20028;-82
2021/12/26 06:19:05;;;;;;;16.35;8.73;;;0.80;99.90;;;;;;5054857;28;20036;-82
2021/12/26 06:21:31;;;;;;;14.25;8.32;;;0.80;99.90;;;;;;5054991;28;20120;-82
2021/12/26 06:23:57;;;;;;;14.52;8.45;;;0.80;99.90;;;;;;5055723;28;20028;-85
2021/12/26 06:26:25;;;;;;;11.93;7.38;;;0.80;99.90;;;;;;5055974;28;20021;-85
2021/12/26 06:28:51;;;;;;;11.65;7.63;;;0.70;99.90;;;;;;5053968;28;20035;-85
2021/12/26 06:31:17;;;;;;;13.13;7.90;;;0.70;99.90;;;;;;5056583;28;20033;-85
2021/12/26 06:33:43;;;;;;;12.65;7.43;;;0.60;99.90;;;;;;5056306;28;20027;-85
2021/12/26 06:36:10;;;;;;;12.57;7.30;;;0.60;99.90;;;;;;5063245;28;20059;-85
2021/12/26 06:38:40;;;;;;;11.23;7.05;;;0.60;99.90;;;;;;5065513;28;20029;-85
2021/12/26 06:41:06;;;;;;;10.75;6.70;;;0.60;99.90;;;;;;5054116;28;20116;-85
2021/12/26 06:43:33;;;;;;;10.77;6.45;;;0.60;99.90;;;;;;5070667;28;20024;-85
2021/12/26 06:45:59;;;;;;;11.65;6.97;;;0.60;99.90;;;;;;5063412;28;20062;-85
2021/12/26 06:48:25;;;;;;;12.43;7.75;;;0.60;99.90;;;;;;5053786;28;20021;-85
2021/12/26 06:50:52;;;;;;;10.77;7.20;;;0.60;99.90;;;;;;5054283;28;20142;-86
2021/12/26 06:53:18;;;;;;;11.00;7.35;;;0.60;99.90;;;;;;5054654;28;20028;-86
2021/12/26 06:55:45;;;;;;;12.07;7.70;;;0.60;99.90;;;;;;5055108;28;20029;-85
2021/12/26 06:58:12;;;;;;;12.60;7.10;;;0.60;99.90;;;;;;5053849;28;20086;-85
2021/12/26 07:00:39;;;;;;;11.93;7.53;;;0.70;99.90;;;;;;5053865;28;20021;-85
2021/12/26 07:03:04;;;;;;;14.48;7.72;;;0.70;99.90;;;;;;5052910;28;20032;-85
2021/12/26 07:05:30;;;;;;;21.73;10.63;;;0.70;99.90;;;;;;5053212;28;20029;-84
2021/12/26 07:07:57;;;;;;;26.50;11.23;;;0.70;99.90;;;;;;5054959;28;20025;-84
2021/12/26 07:10:22;;;;;;;26.10;11.88;;;0.70;99.90;;;;;;5054795;28;20060;-84
2021/12/26 07:12:48;;;;;;;24.52;10.75;;;0.70;99.90;;;;;;5054558;28;20063;-84
2021/12/26 07:15:14;;;;;;;38.78;19.25;;;0.70;99.90;;;;;;5054258;28;20029;-84
2021/12/26 07:17:41;;;;;;;31.35;16.48;;;0.70;99.90;;;;;;5055170;28;20021;-84
2021/12/26 07:20:09;;;;;;;23.13;13.45;;;0.70;99.90;;;;;;5054611;28;20380;-84
2021/12/26 07:22:35;;;;;;;21.23;12.27;;;0.70;99.90;;;;;;5054458;28;20025;-84
2021/12/26 07:25:01;;;;;;;20.00;11.30;;;0.70;99.90;;;;;;5053829;28;20116;-84
2021/12/26 07:27:27;;;;;;;19.48;10.68;;;0.70;99.90;;;;;;5051598;28;20025;-84
2021/12/26 07:29:53;;;;;;;18.20;11.02;;;0.70;99.90;;;;;;5054785;28;20029;-84
2021/12/26 07:32:19;;;;;;;21.33;11.77;;;0.70;99.90;;;;;;5054824;28;20063;-84
2021/12/26 07:34:45;;;;;;;20.15;11.68;;;0.60;99.90;;;;;;5055268;28;20032;-84
2021/12/26 07:37:11;;;;;;;21.85;12.65;;;0.70;99.90;;;;;;5054845;28;20033;-84
2021/12/26 07:39:37;;;;;;;27.92;13.98;;;0.70;99.90;;;;;;5055034;28;20036;-84
2021/12/26 07:42:03;;;;;;;25.38;14.60;;;0.70;99.90;;;;;;5053567;28;20021;-84
2021/12/26 07:44:29;;;;;;;23.60;13.23;;;0.70;99.90;;;;;;5054685;28;20048;-84
2021/12/26 07:46:55;;;;;;;23.80;13.32;;;0.70;99.90;;;;;;5053431;28;20029;-84
2021/12/26 07:49:22;;;;;;;26.70;14.55;;;0.70;99.90;;;;;;5052885;28;20099;-84
2021/12/26 07:51:49;;;;;;;22.48;13.05;;;0.80;99.90;;;;;;5053819;28;20033;-84
2021/12/26 07:54:16;;;;;;;24.92;14.20;;;0.80;99.90;;;;;;5053395;28;20469;-84
2021/12/26 07:56:43;;;;;;;24.33;13.93;;;0.80;99.90;;;;;;5051791;28;20061;-84
2021/12/26 07:59:09;;;;;;;25.30;14.25;;;0.90;99.90;;;;;;5051836;28;20079;-84
2021/12/26 08:01:35;;;;;;;25.95;13.90;;;0.90;99.90;;;;;;5051811;28;20021;-84
2021/12/26 08:04:02;;;;;;;25.88;13.45;;;0.90;99.90;;;;;;5053954;28;20087;-84
2021/12/26 08:06:30;;;;;;;24.65;14.18;;;1.00;99.90;;;;;;5055611;28;20075;-84
2021/12/26 08:08:55;;;;;;;28.90;14.48;;;0.90;99.90;;;;;;5056084;28;20138;-82
2021/12/26 08:11:21;;;;;;;40.47;20.90;;;1.00;99.90;;;;;;5057730;28;20536;-82
2021/12/26 08:13:47;;;;;;;57.08;27.75;;;1.00;99.90;;;;;;5059885;28;20082;-82
2021/12/26 08:16:14;;;;;;;42.95;21.85;;;1.00;99.90;;;;;;5055548;28;20029;-82
2021/12/26 08:18:40;;;;;;;36.67;20.48;;;1.00;99.90;;;;;;5057211;28;20029;-82
2021/12/26 08:21:06;;;;;;;32.95;17.73;;;1.10;99.90;;;;;;5056785;28;20021;-82
2021/12/26 08:23:31;;;;;;;29.52;15.73;;;1.10;99.90;;;;;;5055383;28;20103;-82
2021/12/26 08:25:57;;;;;;;28.25;15.52;;;1.10;99.90;;;;;;5056823;28;20366;-82
2021/12/26 08:28:23;;;;;;;31.00;18.50;;;1.20;99.90;;;;;;5055163;28;20025;-82
2021/12/26 08:30:49;;;;;;;42.10;22.60;;;1.10;99.90;;;;;;5056447;28;20021;-82
2021/12/26 08:33:15;;;;;;;45.55;25.13;;;1.20;99.90;;;;;;5056374;28;20420;-82
2021/12/26 08:35:44;;;;;;;40.90;23.80;;;1.20;99.90;;;;;;5055077;28;20531;-82
2021/12/26 08:38:10;;;;;;;42.47;23.30;;;1.20;99.90;;;;;;5056248;28;20021;-82
2021/12/26 08:40:36;;;;;;;36.95;20.67;;;1.10;99.90;;;;;;5054994;28;20067;-82
2021/12/26 08:43:01;;;;;;;38.65;21.00;;;1.20;99.90;;;;;;5055152;28;20060;-82
2021/12/26 08:45:28;;;;;;;39.67;20.75;;;1.20;99.90;;;;;;5054989;28;20025;-82
2021/12/26 08:47:55;;;;;;;38.67;20.60;;;1.20;99.90;;;;;;5055019;28;20527;-82
2021/12/26 08:50:24;;;;;;;38.88;17.98;;;1.20;99.90;;;;;;5056426;28;20021;-82
2021/12/26 08:52:49;;;;;;;39.15;18.35;;;1.20;99.90;;;;;;5054871;28;20432;-82
2021/12/26 08:55:15;;;;;;;31.10;17.63;;;1.20;99.90;;;;;;5056233;28;20025;-82
2021/12/26 08:57:41;;;;;;;35.05;18.80;;;1.20;99.90;;;;;;5055908;28;20029;-82
2021/12/26 09:00:10;;;;;;;35.83;18.98;;;1.20;99.90;;;;;;5054608;28;20473;-82
2021/12/26 09:02:36;;;;;;;34.67;18.65;;;1.30;99.90;;;;;;5055774;28;20102;-84
2021/12/26 09:05:03;;;;;;;35.08;17.92;;;1.30;99.90;;;;;;5055684;28;20028;-85
2021/12/26 09:07:28;;;;;;;39.13;19.77;;;1.30;99.90;;;;;;5055692;28;20048;-84
2021/12/26 09:09:56;;;;;;;40.00;20.02;;;1.40;99.90;;;;;;5055807;28;20436;-84
2021/12/26 09:12:22;;;;;;;36.10;18.75;;;1.40;99.90;;;;;;5055888;28;20025;-85
2021/12/26 09:14:48;;;;;;;37.97;18.40;;;1.50;99.90;;;;;;5055062;28;20021;-84
2021/12/26 09:17:13;;;;;;;45.72;23.85;;;1.50;99.90;;;;;;5056306;28;20017;-85
2021/12/26 09:19:39;;;;;;;39.40;20.42;;;1.60;99.90;;;;;;5056798;28;20378;-85
2021/12/26 09:22:08;;;;;;;35.90;19.80;;;1.60;99.90;;;;;;5055200;28;20128;-84
2021/12/26 09:24:34;;;;;;;33.08;19.35;;;1.70;99.90;;;;;;5056179;28;20040;-84
2021/12/26 09:27:01;;;;;;;30.55;17.65;;;1.70;99.90;;;;;;5056905;28;20017;-85
2021/12/26 09:29:26;;;;;;;36.17;20.05;;;1.80;99.90;;;;;;5057256;28;20425;-85
2021/12/26 09:31:53;;;;;;;34.33;18.60;;;1.80;99.90;;;;;;5056026;28;20078;-85
2021/12/26 09:34:20;;;;;;;44.60;21.52;;;1.90;99.90;;;;;;5054316;28;20029;-85
2021/12/26 09:36:47;;;;;;;43.17;22.23;;;2.00;99.90;;;;;;5055518;28;20053;-85
2021/12/26 09:39:13;;;;;;;43.50;21.48;;;2.00;99.90;;;;;;5054247;28;20021;-85
2021/12/26 09:41:39;;;;;;;46.75;22.75;;;1.90;99.90;;;;;;5054037;28;20017;-84
2021/12/26 09:44:06;;;;;;;39.08;20.58;;;1.90;99.90;;;;;;5055251;28;20029;-85
2021/12/26 09:46:34;;;;;;;39.10;22.45;;;1.80;99.90;;;;;;5055647;28;20021;-85
2021/12/26 09:49:00;;;;;;;43.47;20.75;;;1.80;99.90;;;;;;5053738;28;20029;-85
2021/12/26 09:51:27;;;;;;;41.58;21.17;;;1.80;99.90;;;;;;5053786;28;20392;-84
2021/12/26 09:53:53;;;;;;;37.70;18.33;;;1.80;99.90;;;;;;5055243;28;20078;-84
2021/12/26 09:56:19;;;;;;;35.13;18.08;;;1.70;99.90;;;;;;5054060;28;20035;-85
2021/12/26 09:59:15;;;;;;;32.97;16.85;;;1.70;99.90;;;;;;5055055;28;20107;-84
2021/12/26 10:01:45;;;;;;;32.63;17.20;;;1.70;99.90;;;;;;5053766;28;20032;-84
2021/12/26 10:04:29;;;;;;;30.48;17.08;;;1.70;99.90;;;;;;5053978;28;20025;-85
2021/12/26 10:07:06;;;;;;;31.70;15.82;;;1.70;99.90;;;;;;5053220;28;20029;-85
2021/12/26 10:09:35;;;;;;;30.83;15.43;;;1.70;99.90;;;;;;5054821;28;20024;-85
2021/12/26 10:12:01;;;;;;;41.60;20.98;;;1.80;99.90;;;;;;5054595;28;20029;-84
2021/12/26 10:14:29;;;;;;;38.08;19.65;;;1.80;99.90;;;;;;5054675;28;20025;-84
2021/12/26 10:17:01;;;;;;;34.05;17.52;;;1.80;99.90;;;;;;5054526;28;20017;-84
2021/12/26 10:19:35;;;;;;;27.20;14.70;;;1.90;99.90;;;;;;5054184;28;20025;-84
2021/12/26 10:22:03;;;;;;;22.83;13.75;;;1.90;99.90;;;;;;5054325;28;20025;-84
2021/12/26 10:24:34;;;;;;;44.92;25.40;;;1.90;99.90;;;;;;5054604;28;20408;-84
2021/12/26 10:27:06;;;;;;;35.35;20.67;;;2.00;99.90;;;;;;5052244;28;20109;-84
2021/12/26 10:29:38;;;;;;;34.83;18.25;;;2.10;99.90;;;;;;5052972;28;20032;-84
2021/12/26 10:32:10;;;;;;;39.58;20.40;;;2.10;99.90;;;;;;5054349;28;20483;-84
2021/12/26 10:34:49;;;;;;;41.50;21.08;;;2.10;99.90;;;;;;5054267;28;20465;-84
2021/12/26 10:37:18;;;;;;;60.33;32.03;;;2.10;99.90;;;;;;5054213;28;20029;-84
2021/12/26 10:39:57;;;;;;;51.60;26.58;;;2.20;99.90;;;;;;5053819;28;20533;-84
2021/12/26 10:42:31;;;;;;;44.35;23.10;;;2.20;99.90;;;;;;5053914;28;20032;-84
2021/12/26 10:45:04;;;;;;;39.20;20.52;;;2.30;99.90;;;;;;5052658;28;20013;-84
2021/12/26 10:47:35;;;;;;;40.47;21.85;;;2.40;99.90;;;;;;5052517;28;20502;-84
2021/12/26 10:50:03;;;;;;;37.30;19.30;;;2.40;99.90;;;;;;5052608;28;20120;-84
2021/12/26 10:52:35;;;;;;;37.38;20.02;;;2.50;99.90;;;;;;5052642;28;20025;-84
2021/12/26 10:55:14;;;;;;;40.20;19.40;;;2.50;99.90;;;;;;5053789;28;20142;-84
2021/12/26 10:57:48;;;;;;;40.70;20.27;;;2.60;99.90;;;;;;5053612;28;20021;-84
2021/12/26 11:00:26;;;;;;;35.00;19.77;;;2.70;99.90;;;;;;5053526;28;20029;-84
2021/12/26 11:03:00;;;;;;;38.03;19.60;;;2.70;99.90;;;;;;5053654;28;20489;-84
2021/12/26 11:05:29;;;;;;;42.97;22.55;;;2.80;99.90;;;;;;5052910;28;20032;-81
2021/12/26 11:08:00;;;;;;;44.50;23.35;;;2.80;99.90;;;;;;5054913;28;20025;-83
2021/12/26 11:10:26;;;;;;;;;;;2.90;99.90;;;;;;5054287;28;20029;-84
2021/12/26 11:12:55;;;;;;;39.90;21.17;;;2.90;99.90;;;;;;5052384;28;19911;-84
2021/12/26 11:15:23;;;;;;;37.13;19.45;;;2.90;99.90;;;;;;5052444;28;20037;-84
2021/12/26 11:17:56;;;;;;;36.75;18.40;;;2.80;99.90;;;;;;5054690;28;20408;-84
2021/12/26 11:20:25;;;;;;;29.40;16.75;;;2.80;99.90;;;;;;5052526;28;20443;-84
2021/12/26 11:22:52;;;;;;;29.85;16.70;;;2.80;99.90;;;;;;5052648;28;20078;-84
2021/12/26 11:25:20;;;;;;;34.08;18.45;;;2.80;99.90;;;;;;5053328;28;20021;-81
2021/12/26 11:27:45;;;;;;;28.35;16.08;;;2.80;99.90;;;;;;5054665;28;20032;-81
2021/12/26 11:30:11;;;;;;;32.78;16.73;;;2.80;99.90;;;;;;5056173;28;20404;-81
2021/12/26 11:32:38;;;;;;;30.85;17.40;;;2.80;99.90;;;;;;5057149;28;20025;-82
2021/12/26 11:35:07;;;;;;;25.10;15.10;;;2.80;99.90;;;;;;5055061;28;20048;-82
2021/12/26 11:37:35;;;;;;;25.65;14.82;;;2.90;99.90;;;;;;5055145;28;20021;-82
2021/12/26 11:40:03;;;;;;;33.20;17.83;;;2.90;99.90;;;;;;5059566;28;20053;-81
2021/12/26 11:43:05;;;;;;;33.28;17.13;;;2.90;99.90;;;;;;5059010;28;20021;-82
2021/12/26 11:45:56;;;;;;;29.33;16.67;;;2.80;99.90;;;;;;5057992;28;20473;-85
2021/12/26 11:48:27;;;;;;;27.02;14.77;;;2.90;99.90;;;;;;5058199;28;20032;-86
2021/12/26 11:51:20;;;;;;;23.60;14.88;;;2.90;99.90;;;;;;5058219;28;20013;-86
2021/12/26 11:54:04;;;;;;;21.70;13.45;;;2.90;99.90;;;;;;5056999;28;20530;-86
2021/12/26 11:56:45;;;;;;;23.83;13.73;;;2.90;99.90;;;;;;5057868;28;20050;-86
2021/12/26 11:59:22;;;;;;;23.95;14.80;;;2.90;99.90;;;;;;5056588;28;20418;-86
2021/12/26 12:01:49;;;;;;;21.13;13.15;;;2.90;99.90;;;;;;5056288;28;20036;-86
2021/12/26 12:04:18;;;;;;;21.08;13.35;;;2.90;99.90;;;;;;5056292;28;20017;-86
2021/12/26 12:06:46;;;;;;;20.40;13.05;;;2.90;99.90;;;;;;5057407;28;20032;-86
2021/12/26 12:09:30;;;;;;;21.67;13.20;;;2.90;99.90;;;;;;5056153;28;20037;-86
2021/12/26 12:12:15;;;;;;;22.20;13.48;;;3.00;99.90;;;;;;5057336;28;20024;-86
2021/12/26 12:14:52;;;;;;;23.15;12.90;;;3.00;99.90;;;;;;5057342;28;20408;-86
2021/12/26 12:17:30;;;;;;;24.40;13.52;;;2.90;99.90;;;;;;5055953;28;20021;-86
2021/12/26 12:20:20;;;;;;;21.98;13.45;;;3.00;99.90;;;;;;5057162;28;20025;-86
2021/12/26 12:23:04;;;;;;;22.48;13.98;;;3.00;99.90;;;;;;5046881;28;20489;-84
2021/12/26 12:25:33;;;;;;;24.02;15.10;;;3.00;99.90;;;;;;5055957;28;20025;-84
2021/12/26 12:28:15;;;;;;;27.10;17.05;;;3.00;99.90;;;;;;5055522;28;20050;-85
2021/12/26 12:30:48;;;;;;;27.10;16.77;;;3.10;99.90;;;;;;5037105;28;20026;-85
2021/12/26 12:33:22;;;;;;;26.42;16.35;;;3.20;99.90;;;;;;5041959;28;20028;-85
2021/12/26 12:35:54;;;;;;;27.65;17.00;;;3.20;99.90;;;;;;5055511;28;20113;-84
2021/12/26 12:38:38;;;;;;;26.20;16.27;;;3.30;99.90;;;;;;5057273;28;20037;-85
2021/12/26 12:41:08;;;;;;;26.27;16.83;;;3.40;99.90;;;;;;5059079;28;20013;-85
2021/12/26 12:43:43;;;;;;;29.15;17.80;;;3.50;99.90;;;;;;5060018;28;20089;-85
2021/12/26 12:46:11;;;;;;;34.33;18.92;;;3.60;99.90;;;;;;5047480;28;20052;-84
2021/12/26 12:48:45;;;;;;;34.30;20.27;;;3.60;99.90;;;;;;5044861;28;20029;-85
2021/12/26 12:51:16;;;;;;;30.65;19.40;;;3.70;99.90;;;;;;5044367;28;20026;-85
2021/12/26 12:53:51;;;;;;;29.98;19.63;;;3.80;99.90;;;;;;5045225;28;20030;-85